X  Sulje Metar Aviation säätiedot     EFPO Pori Airport
Lämpötila
14°C Lämpötila
13°C Kastepiste
94% Kosteus



Tuuli
3 M/S
7 MPH
11 KM/T
6 KTS



310°
PL
Nykyiset olosuhteet

Selkeää Selkeää
Paine 991.92 (hPa) - 29.29 (inHg)
Näkyvyys 6.2 (maili) - 10 (km)
Lentokenttä
Lentokentän koodi EFPO

Sijainti: Pori Airport
Etäisyys: 40 (km)

Metar:
EFPO 302050Z AUTO 31006KT CAVOK 14/13 Q0992

Aika: 30-07-2021 23:50 EEST